sensor_id;sensor_type;location;lat;lon;timestamp;temperature;humidity
939;DHT22;456;53.584;9.968;2023-02-08T00:01:08;17.60;17.00
939;DHT22;456;53.584;9.968;2023-02-08T00:03:34;17.60;17.00
939;DHT22;456;53.584;9.968;2023-02-08T00:06:00;17.60;17.00
939;DHT22;456;53.584;9.968;2023-02-08T00:08:25;17.60;17.00
939;DHT22;456;53.584;9.968;2023-02-08T00:10:51;17.60;17.10
939;DHT22;456;53.584;9.968;2023-02-08T00:13:17;17.60;17.00
939;DHT22;456;53.584;9.968;2023-02-08T00:15:43;17.60;17.10
939;DHT22;456;53.584;9.968;2023-02-08T00:18:09;17.60;17.10
939;DHT22;456;53.584;9.968;2023-02-08T00:20:38;17.60;17.10
939;DHT22;456;53.584;9.968;2023-02-08T00:23:04;17.60;17.10
939;DHT22;456;53.584;9.968;2023-02-08T00:25:29;17.60;17.10
939;DHT22;456;53.584;9.968;2023-02-08T00:27:55;17.60;17.10
939;DHT22;456;53.584;9.968;2023-02-08T00:30:21;17.70;17.20
939;DHT22;456;53.584;9.968;2023-02-08T00:32:46;17.70;17.20
939;DHT22;456;53.584;9.968;2023-02-08T00:35:12;17.70;17.80
939;DHT22;456;53.584;9.968;2023-02-08T00:37:37;17.70;17.80
939;DHT22;456;53.584;9.968;2023-02-08T00:40:04;17.70;17.20
939;DHT22;456;53.584;9.968;2023-02-08T00:42:30;17.70;17.20
939;DHT22;456;53.584;9.968;2023-02-08T00:44:56;17.70;17.20
939;DHT22;456;53.584;9.968;2023-02-08T00:47:22;17.60;17.10
939;DHT22;456;53.584;9.968;2023-02-08T00:49:48;17.70;17.20
939;DHT22;456;53.584;9.968;2023-02-08T00:52:13;17.70;17.20
939;DHT22;456;53.584;9.968;2023-02-08T00:54:39;17.70;17.20
939;DHT22;456;53.584;9.968;2023-02-08T00:57:06;17.70;17.20
939;DHT22;456;53.584;9.968;2023-02-08T00:59:31;17.70;17.10
939;DHT22;456;53.584;9.968;2023-02-08T01:01:57;17.60;17.10
939;DHT22;456;53.584;9.968;2023-02-08T01:04:23;17.70;17.10
939;DHT22;456;53.584;9.968;2023-02-08T01:06:48;17.60;17.10
939;DHT22;456;53.584;9.968;2023-02-08T01:09:14;17.60;17.10
939;DHT22;456;53.584;9.968;2023-02-08T01:11:39;17.60;17.10
939;DHT22;456;53.584;9.968;2023-02-08T01:14:05;17.70;17.10
939;DHT22;456;53.584;9.968;2023-02-08T01:16:32;17.70;17.10
939;DHT22;456;53.584;9.968;2023-02-08T01:19:00;17.60;17.10
939;DHT22;456;53.584;9.968;2023-02-08T01:21:31;17.60;17.00
939;DHT22;456;53.584;9.968;2023-02-08T01:23:57;17.60;17.10
939;DHT22;456;53.584;9.968;2023-02-08T01:26:24;17.60;17.10
939;DHT22;456;53.584;9.968;2023-02-08T01:28:50;17.60;17.00
939;DHT22;456;53.584;9.968;2023-02-08T01:31:28;17.70;17.10
939;DHT22;456;53.584;9.968;2023-02-08T01:33:54;17.60;17.10
939;DHT22;456;53.584;9.968;2023-02-08T01:36:20;17.60;17.10
939;DHT22;456;53.584;9.968;2023-02-08T01:38:46;17.60;17.10
939;DHT22;456;53.584;9.968;2023-02-08T01:41:24;17.60;17.10
939;DHT22;456;53.584;9.968;2023-02-08T01:46:28;17.70;17.20
939;DHT22;456;53.584;9.968;2023-02-08T01:48:56;17.70;17.20
939;DHT22;456;53.584;9.968;2023-02-08T01:51:27;17.70;17.20
939;DHT22;456;53.584;9.968;2023-02-08T01:53:55;17.70;17.30
939;DHT22;456;53.584;9.968;2023-02-08T01:56:27;17.70;17.20
939;DHT22;456;53.584;9.968;2023-02-08T01:58:56;17.70;17.20
939;DHT22;456;53.584;9.968;2023-02-08T02:01:24;17.70;17.30
939;DHT22;456;53.584;9.968;2023-02-08T02:03:50;17.70;17.30
939;DHT22;456;53.584;9.968;2023-02-08T02:06:20;17.70;17.30
939;DHT22;456;53.584;9.968;2023-02-08T02:08:52;17.70;17.20
939;DHT22;456;53.584;9.968;2023-02-08T02:11:20;17.70;17.80
939;DHT22;456;53.584;9.968;2023-02-08T02:13:47;17.70;17.30
939;DHT22;456;53.584;9.968;2023-02-08T02:16:14;17.70;17.30
939;DHT22;456;53.584;9.968;2023-02-08T02:18:41;17.70;17.30
939;DHT22;456;53.584;9.968;2023-02-08T02:21:32;17.70;17.30
939;DHT22;456;53.584;9.968;2023-02-08T02:35:31;17.60;17.20
939;DHT22;456;53.584;9.968;2023-02-08T02:43:31;17.60;17.20
939;DHT22;456;53.584;9.968;2023-02-08T02:46:38;17.60;17.20
939;DHT22;456;53.584;9.968;2023-02-08T02:49:07;17.60;17.20
939;DHT22;456;53.584;9.968;2023-02-08T02:51:47;17.60;17.10
939;DHT22;456;53.584;9.968;2023-02-08T02:54:51;17.60;17.20
939;DHT22;456;53.584;9.968;2023-02-08T02:57:26;17.60;17.20
939;DHT22;456;53.584;9.968;2023-02-08T02:59:53;17.60;17.20
939;DHT22;456;53.584;9.968;2023-02-08T03:02:20;17.60;17.20
939;DHT22;456;53.584;9.968;2023-02-08T03:04:49;17.70;17.30
939;DHT22;456;53.584;9.968;2023-02-08T03:07:25;17.70;17.30
939;DHT22;456;53.584;9.968;2023-02-08T03:18:05;17.70;17.30
939;DHT22;456;53.584;9.968;2023-02-08T03:23:30;17.70;17.30
939;DHT22;456;53.584;9.968;2023-02-08T03:26:14;17.70;17.40
939;DHT22;456;53.584;9.968;2023-02-08T03:29:03;17.70;17.30
939;DHT22;456;53.584;9.968;2023-02-08T03:34:09;17.70;17.30
939;DHT22;456;53.584;9.968;2023-02-08T03:36:41;17.70;17.30
939;DHT22;456;53.584;9.968;2023-02-08T03:39:13;17.70;17.30
939;DHT22;456;53.584;9.968;2023-02-08T03:41:42;17.70;17.30
939;DHT22;456;53.584;9.968;2023-02-08T03:44:15;17.70;17.30
939;DHT22;456;53.584;9.968;2023-02-08T03:46:50;17.70;17.30
939;DHT22;456;53.584;9.968;2023-02-08T03:49:21;17.70;17.30
939;DHT22;456;53.584;9.968;2023-02-08T03:51:48;17.70;17.30
939;DHT22;456;53.584;9.968;2023-02-08T03:54:21;17.70;17.30
939;DHT22;456;53.584;9.968;2023-02-08T03:56:51;17.70;17.30
939;DHT22;456;53.584;9.968;2023-02-08T03:59:26;17.70;17.80
939;DHT22;456;53.584;9.968;2023-02-08T04:01:57;17.70;17.20
939;DHT22;456;53.584;9.968;2023-02-08T04:04:25;17.70;17.30
939;DHT22;456;53.584;9.968;2023-02-08T04:06:52;17.70;17.30
939;DHT22;456;53.584;9.968;2023-02-08T04:09:18;17.70;17.10
939;DHT22;456;53.584;9.968;2023-02-08T04:11:43;17.70;17.20
939;DHT22;456;53.584;9.968;2023-02-08T04:14:09;17.70;17.20
939;DHT22;456;53.584;9.968;2023-02-08T04:16:34;17.70;17.20
939;DHT22;456;53.584;9.968;2023-02-08T04:19:00;17.70;17.20
939;DHT22;456;53.584;9.968;2023-02-08T04:21:25;17.70;17.30
939;DHT22;456;53.584;9.968;2023-02-08T04:23:51;17.70;17.30
939;DHT22;456;53.584;9.968;2023-02-08T04:26:17;17.70;17.30
939;DHT22;456;53.584;9.968;2023-02-08T04:28:43;17.70;17.30
939;DHT22;456;53.584;9.968;2023-02-08T04:31:08;17.70;17.30
939;DHT22;456;53.584;9.968;2023-02-08T04:33:34;17.70;17.30
939;DHT22;456;53.584;9.968;2023-02-08T04:35:59;17.70;17.30
939;DHT22;456;53.584;9.968;2023-02-08T04:38:25;17.70;17.30
939;DHT22;456;53.584;9.968;2023-02-08T04:40:50;17.70;17.30
939;DHT22;456;53.584;9.968;2023-02-08T04:43:16;17.70;17.30
939;DHT22;456;53.584;9.968;2023-02-08T04:45:41;17.70;17.30
939;DHT22;456;53.584;9.968;2023-02-08T04:48:07;17.70;17.30
939;DHT22;456;53.584;9.968;2023-02-08T04:50:35;17.70;17.30
939;DHT22;456;53.584;9.968;2023-02-08T04:53:00;17.70;17.40
939;DHT22;456;53.584;9.968;2023-02-08T04:55:26;17.70;17.30
939;DHT22;456;53.584;9.968;2023-02-08T04:57:51;17.70;17.30
939;DHT22;456;53.584;9.968;2023-02-08T05:00:17;17.70;17.30
939;DHT22;456;53.584;9.968;2023-02-08T05:02:44;17.70;17.30
939;DHT22;456;53.584;9.968;2023-02-08T05:05:09;17.70;17.30
939;DHT22;456;53.584;9.968;2023-02-08T05:07:35;17.70;17.30
939;DHT22;456;53.584;9.968;2023-02-08T05:10:01;17.70;17.40
939;DHT22;456;53.584;9.968;2023-02-08T05:12:27;17.70;17.30
939;DHT22;456;53.584;9.968;2023-02-08T05:14:53;17.70;17.30
939;DHT22;456;53.584;9.968;2023-02-08T05:17:18;17.70;17.30
939;DHT22;456;53.584;9.968;2023-02-08T05:19:44;17.70;17.30
939;DHT22;456;53.584;9.968;2023-02-08T05:22:09;17.70;17.30
939;DHT22;456;53.584;9.968;2023-02-08T05:24:35;17.70;17.80
939;DHT22;456;53.584;9.968;2023-02-08T05:27:01;17.70;17.40
939;DHT22;456;53.584;9.968;2023-02-08T05:29:26;17.80;17.40
939;DHT22;456;53.584;9.968;2023-02-08T05:31:52;17.70;17.30
939;DHT22;456;53.584;9.968;2023-02-08T05:34:17;17.70;17.30
939;DHT22;456;53.584;9.968;2023-02-08T05:36:43;17.70;17.30
939;DHT22;456;53.584;9.968;2023-02-08T05:39:08;17.70;17.30
939;DHT22;456;53.584;9.968;2023-02-08T05:41:34;17.70;17.30
939;DHT22;456;53.584;9.968;2023-02-08T05:44:00;17.70;17.30
939;DHT22;456;53.584;9.968;2023-02-08T05:46:25;17.70;17.30
939;DHT22;456;53.584;9.968;2023-02-08T05:48:51;17.70;17.40
939;DHT22;456;53.584;9.968;2023-02-08T05:51:16;17.70;17.40
939;DHT22;456;53.584;9.968;2023-02-08T05:53:42;17.80;17.50
939;DHT22;456;53.584;9.968;2023-02-08T05:56:08;17.80;17.50
939;DHT22;456;53.584;9.968;2023-02-08T05:58:34;17.80;17.50
939;DHT22;456;53.584;9.968;2023-02-08T06:00:59;17.80;17.50
939;DHT22;456;53.584;9.968;2023-02-08T06:03:26;17.80;17.50
939;DHT22;456;53.584;9.968;2023-02-08T06:05:51;17.80;17.60
939;DHT22;456;53.584;9.968;2023-02-08T06:08:17;17.80;17.50
939;DHT22;456;53.584;9.968;2023-02-08T06:10:42;17.80;17.60
939;DHT22;456;53.584;9.968;2023-02-08T06:13:10;17.80;17.50
939;DHT22;456;53.584;9.968;2023-02-08T06:15:35;17.80;17.60
939;DHT22;456;53.584;9.968;2023-02-08T06:18:01;17.80;17.50
939;DHT22;456;53.584;9.968;2023-02-08T06:20:27;17.80;17.60
939;DHT22;456;53.584;9.968;2023-02-08T06:22:54;17.80;17.50
939;DHT22;456;53.584;9.968;2023-02-08T06:25:20;17.80;17.50
939;DHT22;456;53.584;9.968;2023-02-08T06:27:45;17.80;17.60
939;DHT22;456;53.584;9.968;2023-02-08T06:30:11;17.80;17.60
939;DHT22;456;53.584;9.968;2023-02-08T06:32:37;17.80;17.60
939;DHT22;456;53.584;9.968;2023-02-08T06:35:02;17.80;17.60
939;DHT22;456;53.584;9.968;2023-02-08T06:37:28;17.80;17.60
939;DHT22;456;53.584;9.968;2023-02-08T06:39:54;17.80;17.70
939;DHT22;456;53.584;9.968;2023-02-08T06:42:19;17.80;17.60
939;DHT22;456;53.584;9.968;2023-02-08T06:44:45;17.70;17.60
939;DHT22;456;53.584;9.968;2023-02-08T06:47:12;17.80;17.70
939;DHT22;456;53.584;9.968;2023-02-08T06:49:38;17.80;17.70
939;DHT22;456;53.584;9.968;2023-02-08T06:52:03;17.70;17.60
939;DHT22;456;53.584;9.968;2023-02-08T06:54:29;17.70;17.60
939;DHT22;456;53.584;9.968;2023-02-08T06:56:54;17.70;17.60
939;DHT22;456;53.584;9.968;2023-02-08T06:59:20;17.70;17.60
939;DHT22;456;53.584;9.968;2023-02-08T07:01:46;17.70;17.60
939;DHT22;456;53.584;9.968;2023-02-08T07:04:11;17.70;17.60
939;DHT22;456;53.584;9.968;2023-02-08T07:06:37;17.70;17.60
939;DHT22;456;53.584;9.968;2023-02-08T07:09:02;17.70;17.60
939;DHT22;456;53.584;9.968;2023-02-08T07:11:29;17.70;17.60
939;DHT22;456;53.584;9.968;2023-02-08T07:13:54;17.70;17.70
939;DHT22;456;53.584;9.968;2023-02-08T07:16:20;17.70;17.60
939;DHT22;456;53.584;9.968;2023-02-08T07:18:46;17.70;17.70
939;DHT22;456;53.584;9.968;2023-02-08T07:21:12;17.70;17.60
939;DHT22;456;53.584;9.968;2023-02-08T07:23:38;17.80;17.70
939;DHT22;456;53.584;9.968;2023-02-08T07:26:06;17.80;17.70
939;DHT22;456;53.584;9.968;2023-02-08T07:28:33;17.80;17.80
939;DHT22;456;53.584;9.968;2023-02-08T07:30:58;17.70;17.60
939;DHT22;456;53.584;9.968;2023-02-08T07:33:24;17.70;17.60
939;DHT22;456;53.584;9.968;2023-02-08T07:35:50;17.70;17.50
939;DHT22;456;53.584;9.968;2023-02-08T07:38:16;17.70;17.50
939;DHT22;456;53.584;9.968;2023-02-08T07:40:43;17.70;17.40
939;DHT22;456;53.584;9.968;2023-02-08T07:43:08;17.70;17.40
939;DHT22;456;53.584;9.968;2023-02-08T07:45:37;17.70;17.30
939;DHT22;456;53.584;9.968;2023-02-08T07:48:02;17.70;17.40
939;DHT22;456;53.584;9.968;2023-02-08T07:50:28;17.70;17.50
939;DHT22;456;53.584;9.968;2023-02-08T07:52:54;17.70;17.60
939;DHT22;456;53.584;9.968;2023-02-08T07:55:19;17.70;17.60
939;DHT22;456;53.584;9.968;2023-02-08T07:57:48;17.70;17.60
939;DHT22;456;53.584;9.968;2023-02-08T08:00:15;17.70;17.60
939;DHT22;456;53.584;9.968;2023-02-08T08:02:41;17.70;17.60
939;DHT22;456;53.584;9.968;2023-02-08T08:05:07;17.60;17.50
939;DHT22;456;53.584;9.968;2023-02-08T08:07:33;17.70;17.60
939;DHT22;456;53.584;9.968;2023-02-08T08:09:59;17.70;17.60
939;DHT22;456;53.584;9.968;2023-02-08T08:12:24;17.60;17.50
939;DHT22;456;53.584;9.968;2023-02-08T08:14:50;17.60;17.50
939;DHT22;456;53.584;9.968;2023-02-08T08:17:16;17.60;17.50
939;DHT22;456;53.584;9.968;2023-02-08T08:19:42;17.70;17.50
939;DHT22;456;53.584;9.968;2023-02-08T08:22:08;17.60;17.40
939;DHT22;456;53.584;9.968;2023-02-08T08:24:33;17.60;17.40
939;DHT22;456;53.584;9.968;2023-02-08T08:27:01;17.60;17.40
939;DHT22;456;53.584;9.968;2023-02-08T08:29:26;17.60;17.40
939;DHT22;456;53.584;9.968;2023-02-08T08:34:58;17.60;17.40
939;DHT22;456;53.584;9.968;2023-02-08T08:37:24;17.60;17.40
939;DHT22;456;53.584;9.968;2023-02-08T08:39:49;17.60;17.40
939;DHT22;456;53.584;9.968;2023-02-08T08:42:15;17.60;17.40
939;DHT22;456;53.584;9.968;2023-02-08T08:44:41;17.60;17.40
939;DHT22;456;53.584;9.968;2023-02-08T08:47:08;17.60;17.40
939;DHT22;456;53.584;9.968;2023-02-08T08:49:33;17.60;17.40
939;DHT22;456;53.584;9.968;2023-02-08T08:51:59;17.60;17.40
939;DHT22;456;53.584;9.968;2023-02-08T08:54:25;17.70;17.40
939;DHT22;456;53.584;9.968;2023-02-08T08:56:50;17.60;17.30
939;DHT22;456;53.584;9.968;2023-02-08T08:59:16;17.70;17.40
939;DHT22;456;53.584;9.968;2023-02-08T09:01:41;17.60;17.40
939;DHT22;456;53.584;9.968;2023-02-08T09:04:08;17.70;17.40
939;DHT22;456;53.584;9.968;2023-02-08T09:06:34;17.60;17.30
939;DHT22;456;53.584;9.968;2023-02-08T09:09:00;17.60;17.30
939;DHT22;456;53.584;9.968;2023-02-08T09:11:26;17.60;17.20
939;DHT22;456;53.584;9.968;2023-02-08T09:13:51;17.60;17.20
939;DHT22;456;53.584;9.968;2023-02-08T09:16:21;17.60;17.10
939;DHT22;456;53.584;9.968;2023-02-08T09:18:48;17.60;17.20
939;DHT22;456;53.584;9.968;2023-02-08T09:21:18;17.60;17.20
939;DHT22;456;53.584;9.968;2023-02-08T09:23:45;17.60;17.10
939;DHT22;456;53.584;9.968;2023-02-08T09:26:16;17.60;17.10
939;DHT22;456;53.584;9.968;2023-02-08T09:28:42;17.60;17.00
939;DHT22;456;53.584;9.968;2023-02-08T09:31:12;17.60;17.10
939;DHT22;456;53.584;9.968;2023-02-08T09:33:39;17.60;17.00
939;DHT22;456;53.584;9.968;2023-02-08T09:36:05;17.60;16.90
939;DHT22;456;53.584;9.968;2023-02-08T09:38:33;17.60;16.80
939;DHT22;456;53.584;9.968;2023-02-08T09:41:20;17.60;16.80
939;DHT22;456;53.584;9.968;2023-02-08T09:47:17;17.60;16.90
939;DHT22;456;53.584;9.968;2023-02-08T09:50:09;17.60;16.80
939;DHT22;456;53.584;9.968;2023-02-08T09:53:15;17.60;16.70
939;DHT22;456;53.584;9.968;2023-02-08T09:55:51;17.60;16.80
939;DHT22;456;53.584;9.968;2023-02-08T09:58:44;17.60;16.80
939;DHT22;456;53.584;9.968;2023-02-08T10:01:26;17.60;16.90
939;DHT22;456;53.584;9.968;2023-02-08T10:06:28;17.60;16.90
939;DHT22;456;53.584;9.968;2023-02-08T10:08:55;17.60;16.90
939;DHT22;456;53.584;9.968;2023-02-08T10:11:39;17.60;17.00
939;DHT22;456;53.584;9.968;2023-02-08T10:25:52;17.60;16.60
939;DHT22;456;53.584;9.968;2023-02-08T10:33:47;17.60;16.40
939;DHT22;456;53.584;9.968;2023-02-08T10:36:20;17.60;16.40
939;DHT22;456;53.584;9.968;2023-02-08T10:38:51;17.60;16.40
939;DHT22;456;53.584;9.968;2023-02-08T10:41:22;17.60;16.50
939;DHT22;456;53.584;9.968;2023-02-08T10:43:59;17.60;16.50
939;DHT22;456;53.584;9.968;2023-02-08T10:46:39;17.60;16.50
939;DHT22;456;53.584;9.968;2023-02-08T10:51:45;17.60;16.40
939;DHT22;456;53.584;9.968;2023-02-08T10:54:14;17.60;16.40
939;DHT22;456;53.584;9.968;2023-02-08T10:59:50;17.60;16.40
939;DHT22;456;53.584;9.968;2023-02-08T11:02:23;17.60;16.40
939;DHT22;456;53.584;9.968;2023-02-08T11:07:29;17.60;16.40
939;DHT22;456;53.584;9.968;2023-02-08T11:13:03;17.60;16.40
939;DHT22;456;53.584;9.968;2023-02-08T11:15:38;17.60;16.40
939;DHT22;456;53.584;9.968;2023-02-08T11:18:57;17.60;16.40
939;DHT22;456;53.584;9.968;2023-02-08T11:21:21;17.60;16.40
939;DHT22;456;53.584;9.968;2023-02-08T11:23:50;17.60;16.40
939;DHT22;456;53.584;9.968;2023-02-08T11:26:35;17.60;16.50
939;DHT22;456;53.584;9.968;2023-02-08T11:31:30;17.60;16.40
939;DHT22;456;53.584;9.968;2023-02-08T11:34:05;17.60;16.40
939;DHT22;456;53.584;9.968;2023-02-08T11:36:32;17.60;16.40
939;DHT22;456;53.584;9.968;2023-02-08T11:39:13;17.60;16.40
939;DHT22;456;53.584;9.968;2023-02-08T11:41:43;17.60;16.40
939;DHT22;456;53.584;9.968;2023-02-08T11:44:19;17.60;16.40
939;DHT22;456;53.584;9.968;2023-02-08T11:46:46;17.60;16.50
939;DHT22;456;53.584;9.968;2023-02-08T11:49:22;17.60;16.40
939;DHT22;456;53.584;9.968;2023-02-08T11:51:49;17.60;16.40
939;DHT22;456;53.584;9.968;2023-02-08T11:54:38;17.60;16.40
939;DHT22;456;53.584;9.968;2023-02-08T11:57:17;17.60;16.40
939;DHT22;456;53.584;9.968;2023-02-08T11:59:48;17.60;16.40
939;DHT22;456;53.584;9.968;2023-02-08T12:02:34;17.60;16.40
939;DHT22;456;53.584;9.968;2023-02-08T12:05:01;17.60;16.40
939;DHT22;456;53.584;9.968;2023-02-08T12:07:42;17.60;16.40
939;DHT22;456;53.584;9.968;2023-02-08T12:10:51;17.60;16.40
939;DHT22;456;53.584;9.968;2023-02-08T12:21:45;17.50;16.40
939;DHT22;456;53.584;9.968;2023-02-08T12:30:26;17.50;16.10
939;DHT22;456;53.584;9.968;2023-02-08T12:36:10;17.50;16.20
939;DHT22;456;53.584;9.968;2023-02-08T12:44:50;17.50;16.40
939;DHT22;456;53.584;9.968;2023-02-08T12:47:37;17.60;16.40
939;DHT22;456;53.584;9.968;2023-02-08T12:53:00;17.60;16.40
939;DHT22;456;53.584;9.968;2023-02-08T12:55:33;17.60;16.40
939;DHT22;456;53.584;9.968;2023-02-08T12:58:23;17.60;16.40
939;DHT22;456;53.584;9.968;2023-02-08T13:00:50;17.60;16.40
939;DHT22;456;53.584;9.968;2023-02-08T13:06:42;17.50;16.20
939;DHT22;456;53.584;9.968;2023-02-08T13:12:13;17.50;16.00
939;DHT22;456;53.584;9.968;2023-02-08T13:15:06;17.50;15.90
939;DHT22;456;53.584;9.968;2023-02-08T13:17:44;17.50;16.00
939;DHT22;456;53.584;9.968;2023-02-08T13:20:32;17.50;15.80
939;DHT22;456;53.584;9.968;2023-02-08T13:23:09;17.50;15.80
939;DHT22;456;53.584;9.968;2023-02-08T13:25:37;17.50;15.70
939;DHT22;456;53.584;9.968;2023-02-08T13:28:04;17.50;15.70
939;DHT22;456;53.584;9.968;2023-02-08T13:30:31;17.50;15.60
939;DHT22;456;53.584;9.968;2023-02-08T13:33:16;17.50;15.60
939;DHT22;456;53.584;9.968;2023-02-08T13:35:48;17.50;15.60
939;DHT22;456;53.584;9.968;2023-02-08T13:38:30;17.50;15.50
939;DHT22;456;53.584;9.968;2023-02-08T13:41:06;17.50;15.40
939;DHT22;456;53.584;9.968;2023-02-08T13:43:45;17.40;15.40
939;DHT22;456;53.584;9.968;2023-02-08T13:46:13;17.40;15.40
939;DHT22;456;53.584;9.968;2023-02-08T13:48:46;17.40;15.30
939;DHT22;456;53.584;9.968;2023-02-08T13:56:43;17.40;15.30
939;DHT22;456;53.584;9.968;2023-02-08T14:04:51;17.40;15.30
939;DHT22;456;53.584;9.968;2023-02-08T14:07:38;17.40;15.10
939;DHT22;456;53.584;9.968;2023-02-08T14:12:59;17.40;15.10
939;DHT22;456;53.584;9.968;2023-02-08T14:15:30;17.40;15.00
939;DHT22;456;53.584;9.968;2023-02-08T14:17:56;17.40;15.00
939;DHT22;456;53.584;9.968;2023-02-08T14:20:44;17.40;15.00
939;DHT22;456;53.584;9.968;2023-02-08T14:23:24;17.30;14.90
939;DHT22;456;53.584;9.968;2023-02-08T14:25:52;17.30;14.90
939;DHT22;456;53.584;9.968;2023-02-08T14:28:24;17.40;15.40
939;DHT22;456;53.584;9.968;2023-02-08T14:30:52;17.40;15.80
939;DHT22;456;53.584;9.968;2023-02-08T14:33:28;17.40;16.00
939;DHT22;456;53.584;9.968;2023-02-08T14:35:59;17.50;16.20
939;DHT22;456;53.584;9.968;2023-02-08T14:38:49;17.50;16.20
939;DHT22;456;53.584;9.968;2023-02-08T14:41:49;17.60;16.30
939;DHT22;456;53.584;9.968;2023-02-08T14:47:04;17.70;16.40
939;DHT22;456;53.584;9.968;2023-02-08T14:49:37;17.70;16.30
939;DHT22;456;53.584;9.968;2023-02-08T14:52:19;17.70;16.20
939;DHT22;456;53.584;9.968;2023-02-08T14:55:12;17.80;16.30
939;DHT22;456;53.584;9.968;2023-02-08T14:57:39;17.70;16.20
939;DHT22;456;53.584;9.968;2023-02-08T15:00:22;17.80;16.20
939;DHT22;456;53.584;9.968;2023-02-08T15:02:50;17.80;16.10
939;DHT22;456;53.584;9.968;2023-02-08T15:05:27;17.70;16.10
939;DHT22;456;53.584;9.968;2023-02-08T15:07:55;17.80;16.20
939;DHT22;456;53.584;9.968;2023-02-08T15:10:23;17.70;16.00
939;DHT22;456;53.584;9.968;2023-02-08T15:12:54;17.80;16.20
939;DHT22;456;53.584;9.968;2023-02-08T15:15:25;17.70;16.00
939;DHT22;456;53.584;9.968;2023-02-08T15:17:54;17.70;16.00
939;DHT22;456;53.584;9.968;2023-02-08T15:20:23;17.70;16.00
939;DHT22;456;53.584;9.968;2023-02-08T15:23:04;17.70;15.90
939;DHT22;456;53.584;9.968;2023-02-08T15:25:32;17.70;15.80
939;DHT22;456;53.584;9.968;2023-02-08T15:28:18;17.70;15.80
939;DHT22;456;53.584;9.968;2023-02-08T15:30:45;17.70;15.70
939;DHT22;456;53.584;9.968;2023-02-08T15:33:17;17.70;15.60
939;DHT22;456;53.584;9.968;2023-02-08T15:35:44;17.70;15.60
939;DHT22;456;53.584;9.968;2023-02-08T15:38:20;17.70;15.50
939;DHT22;456;53.584;9.968;2023-02-08T15:43:26;17.70;15.40
939;DHT22;456;53.584;9.968;2023-02-08T15:45:56;17.60;15.30
939;DHT22;456;53.584;9.968;2023-02-08T15:48:22;17.60;15.20
939;DHT22;456;53.584;9.968;2023-02-08T15:50:49;17.60;15.40
939;DHT22;456;53.584;9.968;2023-02-08T15:53:15;17.60;15.30
939;DHT22;456;53.584;9.968;2023-02-08T15:55:56;17.60;15.20
939;DHT22;456;53.584;9.968;2023-02-08T15:58:37;17.60;15.30
939;DHT22;456;53.584;9.968;2023-02-08T16:01:06;17.60;15.30
939;DHT22;456;53.584;9.968;2023-02-08T16:03:33;17.60;15.40
939;DHT22;456;53.584;9.968;2023-02-08T16:06:04;17.60;15.50
939;DHT22;456;53.584;9.968;2023-02-08T16:08:33;17.60;15.50
939;DHT22;456;53.584;9.968;2023-02-08T16:10:59;17.60;15.60
939;DHT22;456;53.584;9.968;2023-02-08T16:13:29;17.60;15.70
939;DHT22;456;53.584;9.968;2023-02-08T16:16:13;17.60;15.70
939;DHT22;456;53.584;9.968;2023-02-08T16:21:25;17.60;15.80
939;DHT22;456;53.584;9.968;2023-02-08T16:23:56;17.60;15.90
939;DHT22;456;53.584;9.968;2023-02-08T16:26:28;17.60;15.90
939;DHT22;456;53.584;9.968;2023-02-08T16:29:01;17.70;16.00
939;DHT22;456;53.584;9.968;2023-02-08T16:31:30;17.70;16.00
939;DHT22;456;53.584;9.968;2023-02-08T16:34:04;17.70;15.90
939;DHT22;456;53.584;9.968;2023-02-08T16:36:34;17.70;15.90
939;DHT22;456;53.584;9.968;2023-02-08T16:46:51;17.60;15.80
939;DHT22;456;53.584;9.968;2023-02-08T16:49:17;17.60;15.80
939;DHT22;456;53.584;9.968;2023-02-08T16:51:42;17.60;15.80
939;DHT22;456;53.584;9.968;2023-02-08T16:54:18;17.60;15.70
939;DHT22;456;53.584;9.968;2023-02-08T16:56:44;17.60;15.70
939;DHT22;456;53.584;9.968;2023-02-08T16:59:14;17.60;15.70
939;DHT22;456;53.584;9.968;2023-02-08T17:01:41;17.60;15.70
939;DHT22;456;53.584;9.968;2023-02-08T17:04:11;17.60;15.70
939;DHT22;456;53.584;9.968;2023-02-08T17:06:40;17.60;15.60
939;DHT22;456;53.584;9.968;2023-02-08T17:09:08;17.60;15.50
939;DHT22;456;53.584;9.968;2023-02-08T17:11:35;17.60;15.60
939;DHT22;456;53.584;9.968;2023-02-08T17:14:01;17.60;15.60
939;DHT22;456;53.584;9.968;2023-02-08T17:16:30;17.60;15.60
939;DHT22;456;53.584;9.968;2023-02-08T17:18:57;17.60;15.70
939;DHT22;456;53.584;9.968;2023-02-08T17:21:23;17.60;15.70
939;DHT22;456;53.584;9.968;2023-02-08T17:23:49;17.60;15.70
939;DHT22;456;53.584;9.968;2023-02-08T17:28:47;17.60;15.70
939;DHT22;456;53.584;9.968;2023-02-08T17:31:15;17.60;15.70
939;DHT22;456;53.584;9.968;2023-02-08T17:33:41;17.60;15.60
939;DHT22;456;53.584;9.968;2023-02-08T17:36:09;17.60;15.60
939;DHT22;456;53.584;9.968;2023-02-08T17:38:37;17.60;15.60
939;DHT22;456;53.584;9.968;2023-02-08T17:41:08;17.60;15.70
939;DHT22;456;53.584;9.968;2023-02-08T17:43:34;17.60;15.70
939;DHT22;456;53.584;9.968;2023-02-08T17:46:06;17.60;15.70
939;DHT22;456;53.584;9.968;2023-02-08T17:48:32;17.60;15.80
939;DHT22;456;53.584;9.968;2023-02-08T17:50:59;17.60;15.70
939;DHT22;456;53.584;9.968;2023-02-08T17:53:24;17.60;15.70
939;DHT22;456;53.584;9.968;2023-02-08T17:55:50;17.60;15.70
939;DHT22;456;53.584;9.968;2023-02-08T17:58:16;17.70;15.80
939;DHT22;456;53.584;9.968;2023-02-08T18:00:42;17.70;15.70
939;DHT22;456;53.584;9.968;2023-02-08T18:03:08;17.60;15.70
939;DHT22;456;53.584;9.968;2023-02-08T18:05:34;17.60;15.60
939;DHT22;456;53.584;9.968;2023-02-08T18:07:59;17.60;15.50
939;DHT22;456;53.584;9.968;2023-02-08T18:10:25;17.60;15.60
939;DHT22;456;53.584;9.968;2023-02-08T18:12:52;17.60;15.50
939;DHT22;456;53.584;9.968;2023-02-08T18:15:19;17.60;15.50
939;DHT22;456;53.584;9.968;2023-02-08T18:17:46;17.60;15.50
939;DHT22;456;53.584;9.968;2023-02-08T18:20:13;17.60;15.40
939;DHT22;456;53.584;9.968;2023-02-08T18:22:39;17.60;15.50
939;DHT22;456;53.584;9.968;2023-02-08T18:25:06;17.60;15.70
939;DHT22;456;53.584;9.968;2023-02-08T18:27:32;17.60;15.70
939;DHT22;456;53.584;9.968;2023-02-08T18:29:58;17.60;15.70
939;DHT22;456;53.584;9.968;2023-02-08T18:32:24;17.60;15.70
939;DHT22;456;53.584;9.968;2023-02-08T18:34:51;17.60;15.70
939;DHT22;456;53.584;9.968;2023-02-08T18:37:16;17.60;15.70
939;DHT22;456;53.584;9.968;2023-02-08T18:39:42;17.60;15.70
939;DHT22;456;53.584;9.968;2023-02-08T18:42:08;17.60;15.70
939;DHT22;456;53.584;9.968;2023-02-08T18:44:34;17.60;15.70
939;DHT22;456;53.584;9.968;2023-02-08T18:47:03;17.60;15.60
939;DHT22;456;53.584;9.968;2023-02-08T18:49:29;17.60;15.60
939;DHT22;456;53.584;9.968;2023-02-08T18:51:55;17.60;15.50
939;DHT22;456;53.584;9.968;2023-02-08T18:54:21;17.60;15.60
939;DHT22;456;53.584;9.968;2023-02-08T18:56:50;17.60;15.50
939;DHT22;456;53.584;9.968;2023-02-08T18:59:16;17.60;15.60
939;DHT22;456;53.584;9.968;2023-02-08T19:01:41;17.60;15.60
939;DHT22;456;53.584;9.968;2023-02-08T19:04:07;17.60;15.70
939;DHT22;456;53.584;9.968;2023-02-08T19:06:35;17.60;15.70
939;DHT22;456;53.584;9.968;2023-02-08T19:09:03;17.60;15.70